KCBK/CBK METAR and TAF weather

Enter ICAO airport designator
Station Type Date Time Source
KCBK METAR 2020/11/28 19:35 UTC NOAA

KCBK 281935Z AUTO 25009KT 10SM CLR 13/M04 A3007 RMK AO2 PWINO


Station Type Date Time Source
KCBK Decoded METAR 2020/11/28 19:35 UTC NOAA

Station name not available
Nov 28, 2020 - 02:35 PM EST / 2020.11.28 1935 UTC
Wind: from the WSW (250 degrees) at 10 MPH (9 KT):0
Visibility: 10 mile(s):0
Sky conditions: clear
Temperature: 55 F (13 C)
Dew Point: 24 F (-4 C)
Relative Humidity: 30%
Pressure (altimeter): 30.07 in. Hg (1018 hPa)
ob: KCBK 281935Z AUTO 25009KT 10SM CLR 13/M04 A3007 RMK AO2 PWINO
cycle: 19

Station Type Date Time Source
KCBK TAF UTC NOAA

Error!

Example: see airport list